createdAt,value
2022-09-14T00:01:24.636Z,96913.44
2022-09-14T00:03:54.582Z,96912.81
2022-09-14T00:06:21.611Z,96914.78
2022-09-14T00:08:52.581Z,96911.41
2022-09-14T00:11:20.659Z,96908.66
2022-09-14T00:13:48.239Z,96908.13
2022-09-14T00:16:23.793Z,96902.50
2022-09-14T00:18:52.662Z,96906.53
2022-09-14T00:21:19.491Z,96907.22
2022-09-14T00:23:46.073Z,96896.78
2022-09-14T00:26:16.785Z,96898.84
2022-09-14T00:28:45.949Z,96905.78
2022-09-14T00:31:13.609Z,96899.66
2022-09-14T00:33:42.389Z,96907.22
2022-09-14T00:36:15.761Z,96914.16
2022-09-14T00:38:42.861Z,96914.88
2022-09-14T00:41:14.106Z,96913.34
2022-09-14T00:44:36.111Z,96904.88
2022-09-14T00:47:02.960Z,96899.78
2022-09-14T00:49:39.365Z,96895.19
2022-09-14T00:52:15.325Z,96890.28
2022-09-14T00:54:45.428Z,96888.84
2022-09-14T00:57:12.294Z,96890.19
2022-09-14T00:59:41.245Z,96890.28
2022-09-14T01:02:09.928Z,96890.50
2022-09-14T01:04:37.647Z,96887.22
2022-09-14T01:08:02.085Z,96882.50
2022-09-14T01:10:41.843Z,96869.53
2022-09-14T01:13:29.002Z,96870.34
2022-09-14T01:16:39.205Z,96866.88
2022-09-14T01:19:15.119Z,96855.34
2022-09-14T01:21:42.772Z,96840.94
2022-09-14T01:24:48.757Z,96831.56
2022-09-14T01:27:34.157Z,96834.75
2022-09-14T01:30:12.979Z,96859.28
2022-09-14T01:33:23.729Z,96862.75
2022-09-14T01:35:56.162Z,96853.34
2022-09-14T01:38:27.232Z,96860.97
2022-09-14T01:40:56.339Z,96850.06
2022-09-14T01:43:27.142Z,96859.56
2022-09-14T01:45:58.461Z,96858.75
2022-09-14T01:48:43.155Z,96860.06
2022-09-14T01:51:14.766Z,96862.13
2022-09-14T01:53:46.897Z,96857.75
2022-09-14T01:56:26.073Z,96852.25
2022-09-14T01:59:09.026Z,96857.59
2022-09-14T02:01:48.522Z,96861.78
2022-09-14T02:04:22.890Z,96847.53
2022-09-14T02:06:49.942Z,96845.59
2022-09-14T02:09:26.537Z,96841.50
2022-09-14T02:11:55.386Z,96835.38
2022-09-14T02:14:23.077Z,96832.72
2022-09-14T02:16:49.678Z,96831.28
2022-09-14T02:19:19.399Z,96824.34
2022-09-14T02:21:49.966Z,96830.56
2022-09-14T02:24:18.054Z,96805.06
2022-09-14T02:26:45.746Z,96791.81
2022-09-14T02:29:12.335Z,96793.84
2022-09-14T02:32:03.457Z,96795.28
2022-09-14T02:34:46.013Z,96795.78
2022-09-14T02:37:38.752Z,96794.94
2022-09-14T02:40:23.834Z,96799.03
2022-09-14T02:43:42.900Z,96800.38
2022-09-14T02:46:43.904Z,96818.13
2022-09-14T02:49:40.964Z,96811.78
2022-09-14T02:52:30.718Z,96811.72
2022-09-14T02:55:10.252Z,96825.56
2022-09-14T02:58:12.267Z,96822.63
2022-09-14T03:00:41.789Z,96823.25
2022-09-14T03:03:10.333Z,96816.41
2022-09-14T03:05:37.510Z,96822.50
2022-09-14T03:08:04.599Z,96811.50
2022-09-14T03:10:32.242Z,96811.41
2022-09-14T03:12:59.518Z,96800.91
2022-09-14T03:15:26.992Z,96805.59
2022-09-14T03:17:53.939Z,96797.25
2022-09-14T03:20:24.652Z,96795.91
2022-09-14T03:22:51.668Z,96795.19
2022-09-14T03:25:23.076Z,96790.28
2022-09-14T03:27:51.206Z,96789.69
2022-09-14T03:30:18.946Z,96789.56
2022-09-14T03:32:46.057Z,96788.78
2022-09-14T03:35:13.485Z,96783.03
2022-09-14T03:37:41.978Z,96780.00
2022-09-14T03:40:10.165Z,96778.56
2022-09-14T03:42:37.389Z,96780.59
2022-09-14T03:45:04.591Z,96782.75
2022-09-14T03:47:31.397Z,96787.44
2022-09-14T03:49:58.063Z,96793.66
2022-09-14T03:52:24.794Z,96786.22
2022-09-14T03:54:51.524Z,96791.72
2022-09-14T03:57:18.107Z,96793.88
2022-09-14T03:59:44.937Z,96796.41
2022-09-14T04:02:11.695Z,96800.50
2022-09-14T04:04:38.350Z,96797.63
2022-09-14T04:07:05.173Z,96795.00
2022-09-14T04:09:31.755Z,96803.97
2022-09-14T04:11:58.308Z,96798.56
2022-09-14T04:14:25.202Z,96802.84
2022-09-14T04:16:51.874Z,96795.81
2022-09-14T04:19:18.608Z,96787.44
2022-09-14T04:21:45.848Z,96788.97
2022-09-14T04:24:16.523Z,96786.81
2022-09-14T04:26:44.755Z,96788.47
2022-09-14T04:29:12.677Z,96781.75
2022-09-14T04:31:39.586Z,96781.81
2022-09-14T04:34:06.649Z,96773.66
2022-09-14T04:36:33.605Z,96764.91
2022-09-14T04:39:02.004Z,96765.59
2022-09-14T04:41:30.516Z,96778.75
2022-09-14T04:43:57.552Z,96776.09
2022-09-14T04:46:27.757Z,96766.13
2022-09-14T04:48:55.050Z,96772.13
2022-09-14T04:51:26.090Z,96768.06
2022-09-14T04:53:54.509Z,96763.25
2022-09-14T04:56:22.974Z,96748.88
2022-09-14T04:58:52.642Z,96754.59
2022-09-14T05:01:21.982Z,96755.28
2022-09-14T05:03:49.493Z,96767.84
2022-09-14T05:06:21.696Z,96764.47
2022-09-14T05:08:49.140Z,96764.66
2022-09-14T05:11:18.568Z,96760.66
2022-09-14T05:13:49.681Z,96757.84
2022-09-14T05:16:23.714Z,96757.13
2022-09-14T05:18:51.823Z,96755.16
2022-09-14T05:21:20.114Z,96759.38
2022-09-14T05:23:47.357Z,96753.94
2022-09-14T05:26:14.666Z,96755.56
2022-09-14T05:28:41.397Z,96754.22
2022-09-14T05:31:10.790Z,96761.16
2022-09-14T05:33:37.376Z,96763.31
2022-09-14T05:36:07.194Z,96762.00
2022-09-14T05:38:36.120Z,96767.53
2022-09-14T05:41:02.869Z,96762.72
2022-09-14T05:43:30.189Z,96769.94
2022-09-14T05:46:00.817Z,96769.94
2022-09-14T05:48:27.582Z,96769.50
2022-09-14T05:51:01.412Z,96765.13
2022-09-14T05:53:28.533Z,96763.78
2022-09-14T05:56:03.160Z,96761.31
2022-09-14T05:58:30.189Z,96760.25
2022-09-14T06:00:56.831Z,96757.75
2022-09-14T06:03:23.740Z,96761.00
2022-09-14T06:05:50.339Z,96750.25
2022-09-14T06:08:17.081Z,96756.22
2022-09-14T06:10:43.817Z,96748.66
2022-09-14T06:13:10.400Z,96741.38
2022-09-14T06:15:36.956Z,96745.44
2022-09-14T06:18:04.632Z,96738.78
2022-09-14T06:20:31.204Z,96727.75
2022-09-14T06:22:57.946Z,96722.31
2022-09-14T06:25:24.588Z,96714.31
2022-09-14T06:27:54.716Z,96712.19
2022-09-14T06:30:21.429Z,96730.16
2022-09-14T06:32:48.153Z,96734.50
2022-09-14T06:35:15.146Z,96732.28
2022-09-14T06:37:41.739Z,96738.91
2022-09-14T06:40:08.933Z,96752.63
2022-09-14T06:42:35.789Z,96741.75
2022-09-14T06:45:02.572Z,96741.47
2022-09-14T06:47:32.572Z,96737.47
2022-09-14T06:49:59.222Z,96740.94
2022-09-14T06:52:25.793Z,96739.53
2022-09-14T06:54:52.380Z,96741.13
2022-09-14T06:57:19.165Z,96746.34
2022-09-14T06:59:45.746Z,96745.22
2022-09-14T07:02:13.674Z,96750.00
2022-09-14T07:04:40.310Z,96752.22
2022-09-14T07:07:06.872Z,96738.28
2022-09-14T07:09:33.478Z,96742.53
2022-09-14T07:12:00.268Z,96744.59
2022-09-14T07:14:31.609Z,96750.22
2022-09-14T07:16:58.933Z,96745.72
2022-09-14T07:19:25.559Z,96746.00
2022-09-14T07:21:53.888Z,96763.00
2022-09-14T07:24:20.825Z,96770.03
2022-09-14T07:26:47.846Z,96764.31
2022-09-14T07:29:17.410Z,96774.66
2022-09-14T07:31:49.171Z,96781.53
2022-09-14T07:34:16.650Z,96791.06
2022-09-14T07:36:43.756Z,96804.53
2022-09-14T07:39:14.439Z,96825.91
2022-09-14T07:41:41.397Z,96828.03
2022-09-14T07:44:09.385Z,96866.78
2022-09-14T07:46:43.188Z,96894.47
2022-09-14T07:49:10.969Z,96885.56
2022-09-14T07:51:38.829Z,96862.59
2022-09-14T07:54:06.965Z,96835.44
2022-09-14T07:56:34.994Z,96847.25
2022-09-14T07:59:30.849Z,96832.94
2022-09-14T08:01:50.190Z,96828.75
2022-09-14T08:04:16.989Z,96826.09
2022-09-14T08:06:43.628Z,96827.97
2022-09-14T08:09:10.415Z,96823.84
2022-09-14T08:11:38.114Z,96833.31
2022-09-14T08:14:07.360Z,96828.22
2022-09-14T08:16:34.895Z,96823.94
2022-09-14T08:19:08.109Z,96812.47
2022-09-14T08:21:35.752Z,96817.69
2022-09-14T08:24:04.354Z,96824.13
2022-09-14T08:26:31.874Z,96824.13
2022-09-14T08:29:03.329Z,96832.41
2022-09-14T08:31:29.935Z,96798.63
2022-09-14T08:34:01.435Z,96829.19
2022-09-14T08:36:36.621Z,96830.25
2022-09-14T08:39:04.469Z,96824.00
2022-09-14T08:41:51.804Z,96836.13
2022-09-14T08:44:24.948Z,96819.25
2022-09-14T08:47:04.171Z,96812.03
2022-09-14T08:50:02.911Z,96815.66
2022-09-14T08:52:52.948Z,96805.41
2022-09-14T08:55:44.877Z,96798.97
2022-09-14T08:58:54.825Z,96790.63
2022-09-14T09:02:03.745Z,96786.38
2022-09-14T09:05:02.383Z,96783.06
2022-09-14T09:08:06.102Z,96781.13
2022-09-14T09:10:35.339Z,96775.00
2022-09-14T09:13:05.877Z,96776.94
2022-09-14T09:15:50.786Z,96770.66
2022-09-14T09:18:34.737Z,96769.16
2022-09-14T09:21:11.185Z,96769.09
2022-09-14T09:23:38.496Z,96765.19
2022-09-14T09:26:27.636Z,96761.88
2022-09-14T09:29:00.358Z,96755.00
2022-09-14T09:31:36.754Z,96768.72
2022-09-14T09:34:03.937Z,96763.75
2022-09-14T09:36:35.102Z,96778.91
2022-09-14T09:39:05.149Z,96773.16
2022-09-14T09:41:47.892Z,96771.03
2022-09-14T09:44:15.261Z,96768.88
2022-09-14T09:47:11.312Z,96769.59
2022-09-14T09:49:40.126Z,96777.72
2022-09-14T09:52:10.982Z,96776.22
2022-09-14T09:54:40.069Z,96774.06
2022-09-14T09:57:29.243Z,96781.66
2022-09-14T10:00:29.970Z,96771.16
2022-09-14T10:02:57.269Z,96780.25
2022-09-14T10:05:28.986Z,96769.88
2022-09-14T10:08:01.074Z,96775.44
2022-09-14T10:10:45.095Z,96772.03
2022-09-14T10:13:30.294Z,96774.41
2022-09-14T10:16:15.794Z,96774.41
2022-09-14T10:18:49.141Z,96759.88
2022-09-14T10:21:26.141Z,96751.69
2022-09-14T10:24:16.369Z,96751.59
2022-09-14T10:26:43.261Z,96751.31
2022-09-14T10:29:35.433Z,96736.75
2022-09-14T10:32:25.428Z,96736.03
2022-09-14T10:34:52.028Z,96727.41
2022-09-14T10:37:45.098Z,96726.50
2022-09-14T10:40:20.522Z,96724.09
2022-09-14T10:43:22.658Z,96716.78
2022-09-14T10:46:01.582Z,96708.69
2022-09-14T10:48:57.482Z,96714.13
2022-09-14T10:52:00.332Z,96700.53
2022-09-14T10:55:20.048Z,96706.34
2022-09-14T10:58:31.638Z,96685.69
2022-09-14T11:01:25.145Z,96688.31
2022-09-14T11:04:26.247Z,96686.53
2022-09-14T11:07:13.655Z,96681.28
2022-09-14T11:10:17.181Z,96667.00
2022-09-14T11:13:26.101Z,96657.63
2022-09-14T11:16:47.674Z,96658.59
2022-09-14T11:19:32.102Z,96653.19
2022-09-14T11:22:12.872Z,96644.91
2022-09-14T11:24:59.462Z,96640.22
2022-09-14T11:27:41.376Z,96644.63
2022-09-14T11:30:38.026Z,96640.44
2022-09-14T11:33:11.582Z,96629.34
2022-09-14T11:35:45.489Z,96624.50
2022-09-14T11:38:26.342Z,96611.44
2022-09-14T11:41:21.530Z,96608.03
2022-09-14T11:43:59.068Z,96608.22
2022-09-14T11:46:34.710Z,96595.81
2022-09-14T11:49:17.254Z,96586.88
2022-09-14T11:51:55.281Z,96583.44
2022-09-14T11:54:23.944Z,96584.81
2022-09-14T11:56:58.402Z,96582.56
2022-09-14T11:59:50.973Z,96581.94
2022-09-14T12:02:43.936Z,96571.50
2022-09-14T12:05:31.907Z,96572.22
2022-09-14T12:08:04.693Z,96572.50
2022-09-14T12:10:31.485Z,96560.72
2022-09-14T12:13:19.626Z,96560.03
2022-09-14T12:15:46.432Z,96555.25
2022-09-14T12:18:23.424Z,96555.31
2022-09-14T12:21:01.123Z,96565.75
2022-09-14T12:23:43.327Z,96553.00
2022-09-14T12:26:31.421Z,96556.19
2022-09-14T12:29:06.641Z,96567.94
2022-09-14T12:32:05.974Z,96573.34
2022-09-14T12:34:33.740Z,96574.59
2022-09-14T12:37:24.841Z,96579.34
2022-09-14T12:40:23.972Z,96584.81
2022-09-14T12:42:50.622Z,96583.25
2022-09-14T12:45:50.437Z,96574.31
2022-09-14T12:49:03.396Z,96575.81
2022-09-14T12:51:50.114Z,96577.22
2022-09-14T12:54:51.457Z,96575.13
2022-09-14T12:57:31.408Z,96581.47
2022-09-14T13:00:16.468Z,96572.56
2022-09-14T13:03:31.300Z,96581.84
2022-09-14T13:05:58.517Z,96588.31
2022-09-14T13:08:25.318Z,96571.00
2022-09-14T13:10:52.828Z,96562.72
2022-09-14T13:13:24.071Z,96554.50
2022-09-14T13:15:59.590Z,96539.84
2022-09-14T13:18:37.757Z,96542.50
2022-09-14T13:21:22.062Z,96527.06
2022-09-14T13:23:49.202Z,96525.56
2022-09-14T13:26:24.616Z,96530.34
2022-09-14T13:28:53.846Z,96534.66
2022-09-14T13:31:41.126Z,96528.56
2022-09-14T13:34:14.582Z,96521.09
2022-09-14T13:36:43.607Z,96519.88
2022-09-14T13:39:38.050Z,96518.56
2022-09-14T13:42:06.018Z,96530.63
2022-09-14T13:44:45.212Z,96529.25
2022-09-14T13:47:14.779Z,96530.03
2022-09-14T13:49:44.964Z,96528.59
2022-09-14T13:52:50.040Z,96529.19
2022-09-14T13:55:26.141Z,96535.41
2022-09-14T13:58:20.374Z,96538.09
2022-09-14T14:00:59.679Z,96540.81
2022-09-14T14:03:50.137Z,96544.94
2022-09-14T14:06:35.321Z,96540.75
2022-09-14T14:09:10.002Z,96535.84
2022-09-14T14:11:39.773Z,96540.63
2022-09-14T14:14:15.291Z,96531.97
2022-09-14T14:17:02.325Z,96524.03
2022-09-14T14:19:30.985Z,96503.44
2022-09-14T14:22:38.782Z,96540.06
2022-09-14T14:25:19.214Z,96549.69
2022-09-14T14:27:47.717Z,96544.69
2022-09-14T14:30:17.633Z,96550.13
2022-09-14T14:32:44.313Z,96548.50
2022-09-14T14:35:20.189Z,96565.00
2022-09-14T14:37:47.939Z,96587.59
2022-09-14T14:40:15.766Z,96575.28
2022-09-14T14:42:43.230Z,96560.41
2022-09-14T14:45:15.149Z,96565.41
2022-09-14T14:47:41.778Z,96553.47
2022-09-14T14:50:20.921Z,96546.63
2022-09-14T14:52:47.524Z,96542.53
2022-09-14T14:55:14.870Z,96526.44
2022-09-14T14:57:41.520Z,96531.97
2022-09-14T15:00:15.424Z,96532.03
2022-09-14T15:02:42.611Z,96527.94
2022-09-14T15:05:09.903Z,96521.72
2022-09-14T15:07:37.892Z,96515.41
2022-09-14T15:10:05.950Z,96504.22
2022-09-14T15:12:33.206Z,96511.78
2022-09-14T15:15:00.641Z,96519.22
2022-09-14T15:17:27.321Z,96506.53
2022-09-14T15:19:53.973Z,96501.56
2022-09-14T15:22:20.800Z,96504.91
2022-09-14T15:24:47.431Z,96508.28
2022-09-14T15:27:14.824Z,96507.53
2022-09-14T15:29:41.420Z,96499.84
2022-09-14T15:32:08.217Z,96503.41
2022-09-14T15:34:35.031Z,96498.53
2022-09-14T15:37:01.688Z,96500.09
2022-09-14T15:39:31.379Z,96504.81
2022-09-14T15:41:58.346Z,96499.84
2022-09-14T15:44:24.914Z,96490.72
2022-09-14T15:46:51.952Z,96491.34
2022-09-14T15:49:21.353Z,96488.53
2022-09-14T15:51:50.446Z,96493.28
2022-09-14T15:54:23.140Z,96490.50
2022-09-14T15:56:51.082Z,96489.09
2022-09-14T15:59:19.057Z,96477.81
2022-09-14T16:01:46.206Z,96479.91
2022-09-14T16:04:13.280Z,96474.25
2022-09-14T16:06:40.579Z,96470.72
2022-09-14T16:09:10.217Z,96472.03
2022-09-14T16:11:38.084Z,96481.72
2022-09-14T16:14:06.004Z,96474.78
2022-09-14T16:16:34.024Z,96469.19
2022-09-14T16:19:11.529Z,96460.84
2022-09-14T16:21:39.234Z,96457.31
2022-09-14T16:24:08.128Z,96463.50
2022-09-14T16:26:36.315Z,96459.91
2022-09-14T16:29:04.272Z,96460.56
2022-09-14T16:31:34.913Z,96454.94
2022-09-14T16:34:05.090Z,96450.66
2022-09-14T16:36:34.722Z,96438.75
2022-09-14T16:39:03.667Z,96431.69
2022-09-14T16:41:30.910Z,96428.13
2022-09-14T16:44:02.506Z,96423.88
2022-09-14T16:46:30.720Z,96433.59
2022-09-14T16:48:58.687Z,96448.59
2022-09-14T16:51:27.893Z,96452.63
2022-09-14T16:53:54.477Z,96454.00
2022-09-14T16:56:27.699Z,96448.63
2022-09-14T16:58:55.783Z,96431.78
2022-09-14T17:01:24.919Z,96417.72
2022-09-14T17:03:53.501Z,96420.38
2022-09-14T17:06:23.079Z,96418.81
2022-09-14T17:08:50.150Z,96423.69
2022-09-14T17:11:18.231Z,96426.31
2022-09-14T17:13:46.089Z,96415.22
2022-09-14T17:16:18.802Z,96423.47
2022-09-14T17:18:48.857Z,96424.13
2022-09-14T17:21:21.105Z,96432.38
2022-09-14T17:23:48.014Z,96441.41
2022-09-14T17:26:18.606Z,96440.63
2022-09-14T17:28:47.378Z,96447.59
2022-09-14T17:31:16.791Z,96460.00
2022-09-14T17:33:43.800Z,96464.78
2022-09-14T17:36:10.658Z,96473.03
2022-09-14T17:38:39.518Z,96473.06
2022-09-14T17:41:09.698Z,96481.34
2022-09-14T17:43:37.597Z,96485.47
2022-09-14T17:46:06.041Z,96482.72
2022-09-14T17:48:35.008Z,96491.63
2022-09-14T17:51:23.272Z,96495.00
2022-09-14T17:53:53.737Z,96502.56
2022-09-14T17:56:22.674Z,96508.22
2022-09-14T17:58:56.866Z,96516.47
2022-09-14T18:01:23.525Z,96540.69
2022-09-14T18:03:59.895Z,96571.81
2022-09-14T18:06:32.322Z,96593.41
2022-09-14T18:09:01.814Z,96595.34
2022-09-14T18:11:29.543Z,96616.19
2022-09-14T18:13:56.310Z,96657.16
2022-09-14T18:16:24.802Z,96685.19
2022-09-14T18:18:51.746Z,96689.06
2022-09-14T18:21:18.768Z,96687.13
2022-09-14T18:23:50.613Z,96692.97
2022-09-14T18:26:17.941Z,96702.09
2022-09-14T18:28:44.779Z,96692.41
2022-09-14T18:31:14.998Z,96692.44
2022-09-14T18:33:53.859Z,96670.09
2022-09-14T18:36:21.689Z,96686.66
2022-09-14T18:38:48.856Z,96695.63
2022-09-14T18:41:16.871Z,96685.97
2022-09-14T18:43:45.576Z,96699.31
2022-09-14T18:46:13.021Z,96685.00
2022-09-14T18:48:40.726Z,96698.56
2022-09-14T18:51:07.430Z,96714.13
2022-09-14T18:53:34.275Z,96714.13
2022-09-14T18:56:09.011Z,96715.41
2022-09-14T18:58:37.908Z,96715.00
2022-09-14T19:01:05.031Z,96699.19
2022-09-14T19:03:32.339Z,96697.28
2022-09-14T19:06:03.397Z,96702.09
2022-09-14T19:08:30.033Z,96683.44
2022-09-14T19:10:56.666Z,96675.06
2022-09-14T19:13:23.233Z,96659.66
2022-09-14T19:15:49.823Z,96640.84
2022-09-14T19:18:16.713Z,96630.28
2022-09-14T19:21:05.280Z,96626.81
2022-09-14T19:23:32.312Z,96642.69
2022-09-14T19:26:10.760Z,96648.38
2022-09-14T19:28:38.270Z,96647.19
2022-09-14T19:31:09.683Z,96645.25
2022-09-14T19:33:36.857Z,96637.59
2022-09-14T19:36:14.696Z,96644.56
2022-09-14T19:38:41.939Z,96638.31
2022-09-14T19:41:08.876Z,96634.84
2022-09-14T19:43:35.773Z,96621.06
2022-09-14T19:46:04.634Z,96618.44
2022-09-14T19:48:32.022Z,96617.69
2022-09-14T19:51:03.992Z,96613.56
2022-09-14T19:53:32.437Z,96605.34
2022-09-14T19:55:58.993Z,96603.19
2022-09-14T19:58:26.351Z,96610.13
2022-09-14T20:00:54.591Z,96609.50
2022-09-14T20:03:22.047Z,96601.91
2022-09-14T20:05:58.815Z,96592.25
2022-09-14T20:08:25.625Z,96587.44
2022-09-14T20:10:52.469Z,96591.69
2022-09-14T20:13:19.015Z,96608.25
2022-09-14T20:15:45.680Z,96620.63
2022-09-14T20:18:12.274Z,96609.44
2022-09-14T20:20:38.860Z,96625.19
2022-09-14T20:23:05.442Z,96618.25
2022-09-14T20:25:33.427Z,96629.31
2022-09-14T20:28:00.036Z,96618.94
2022-09-14T20:30:26.612Z,96628.59
2022-09-14T20:32:53.219Z,96627.72
2022-09-14T20:35:20.977Z,96632.63
2022-09-14T20:37:47.575Z,96640.94
2022-09-14T20:40:14.465Z,96628.50
2022-09-14T20:42:41.136Z,96630.72
2022-09-14T20:45:09.226Z,96631.38
2022-09-14T20:47:36.447Z,96632.88
2022-09-14T20:50:03.403Z,96635.69
2022-09-14T20:52:30.059Z,96637.66
2022-09-14T20:54:56.643Z,96654.25
2022-09-14T20:57:24.225Z,96650.97
2022-09-14T20:59:50.993Z,96662.25
2022-09-14T21:02:17.645Z,96659.34
2022-09-14T21:04:44.534Z,96658.69
2022-09-14T21:07:11.526Z,96658.94
2022-09-14T21:09:38.151Z,96655.66
2022-09-14T21:12:04.864Z,96655.75
2022-09-14T21:14:31.432Z,96653.75
2022-09-14T21:16:58.580Z,96660.06
2022-09-14T21:19:27.396Z,96662.22
2022-09-14T21:21:54.359Z,96660.16
2022-09-14T21:24:22.906Z,96665.69
2022-09-14T21:26:49.849Z,96658.81
2022-09-14T21:29:23.626Z,96657.53
2022-09-14T21:31:51.290Z,96668.59
2022-09-14T21:34:18.311Z,96667.25
2022-09-14T21:36:47.717Z,96652.56
2022-09-14T21:39:17.797Z,96651.88
2022-09-14T21:41:45.225Z,96648.44
2022-09-14T21:44:13.003Z,96650.50
2022-09-14T21:46:39.865Z,96654.53
2022-09-14T21:49:07.031Z,96657.25
2022-09-14T21:51:36.721Z,96660.63
2022-09-14T21:54:10.741Z,96663.50
2022-09-14T21:56:39.261Z,96653.75
2022-09-14T21:59:11.681Z,96655.19
2022-09-14T22:01:38.675Z,96655.09
2022-09-14T22:04:06.642Z,96652.28
2022-09-14T22:06:33.688Z,96650.22
2022-09-14T22:09:01.249Z,96657.03
2022-09-14T22:11:33.324Z,96656.31
2022-09-14T22:14:10.886Z,96664.53
2022-09-14T22:16:38.247Z,96663.03
2022-09-14T22:19:08.736Z,96672.69
2022-09-14T22:21:37.411Z,96667.22
2022-09-14T22:24:07.323Z,96669.34
2022-09-14T22:26:35.105Z,96674.78
2022-09-14T22:29:02.252Z,96663.03
2022-09-14T22:31:29.804Z,96654.09
2022-09-14T22:33:57.592Z,96653.31
2022-09-14T22:36:25.777Z,96654.53
2022-09-14T22:38:55.625Z,96649.59
2022-09-14T22:41:22.914Z,96652.22
2022-09-14T22:43:49.746Z,96647.41
2022-09-14T22:46:17.521Z,96636.19
2022-09-14T22:48:45.210Z,96635.50
2022-09-14T22:51:20.386Z,96628.47
2022-09-14T22:53:47.277Z,96624.19
2022-09-14T22:56:19.670Z,96610.88
2022-09-14T22:58:46.727Z,96612.03
2022-09-14T23:01:16.219Z,96601.47
2022-09-14T23:03:43.236Z,96613.13
2022-09-14T23:06:10.505Z,96619.06
2022-09-14T23:08:38.052Z,96635.59
2022-09-14T23:11:13.662Z,96633.78
2022-09-14T23:13:41.794Z,96631.00
2022-09-14T23:16:20.022Z,96634.63
2022-09-14T23:18:51.655Z,96626.34
2022-09-14T23:21:18.616Z,96626.97
2022-09-14T23:23:50.031Z,96620.00
2022-09-14T23:26:16.527Z,96623.41
2022-09-14T23:28:43.265Z,96606.50
2022-09-14T23:31:10.742Z,96596.97
2022-09-14T23:33:37.364Z,96601.06
2022-09-14T23:36:04.135Z,96601.63
2022-09-14T23:38:30.735Z,96611.81
2022-09-14T23:40:58.717Z,96618.69
2022-09-14T23:43:25.472Z,96625.63
2022-09-14T23:45:52.263Z,96630.47
2022-09-14T23:48:18.810Z,96619.22
2022-09-14T23:50:45.368Z,96617.91
2022-09-14T23:53:12.316Z,96625.53
2022-09-14T23:55:39.011Z,96620.50
2022-09-14T23:58:05.715Z,96621.13
